createdAt,value
2023-01-17T00:01:59.374Z,2.88
2023-01-17T00:04:51.173Z,3.85
2023-01-17T00:07:43.679Z,5.65
2023-01-17T00:10:19.671Z,3.97
2023-01-17T00:12:54.588Z,5.05
2023-01-17T00:15:29.311Z,3.03
2023-01-17T00:18:03.608Z,4.50
2023-01-17T00:20:54.801Z,3.08
2023-01-17T00:23:46.918Z,3.35
2023-01-17T00:26:20.873Z,6.93
2023-01-17T00:28:53.321Z,3.33
2023-01-17T00:31:26.011Z,3.40
2023-01-17T00:33:58.407Z,5.25
2023-01-17T00:36:30.946Z,3.40
2023-01-17T00:39:04.748Z,5.65
2023-01-17T00:41:37.371Z,4.25
2023-01-17T00:44:28.284Z,5.07
2023-01-17T00:47:19.317Z,2.55
2023-01-17T00:50:10.313Z,3.70
2023-01-17T00:53:01.611Z,5.55
2023-01-17T00:55:53.810Z,5.53
2023-01-17T00:58:45.083Z,2.30
2023-01-17T01:01:36.374Z,3.00
2023-01-17T01:04:27.848Z,4.20
2023-01-17T01:07:19.403Z,6.70
2023-01-17T01:10:10.604Z,2.25
2023-01-17T01:13:02.877Z,2.95
2023-01-17T01:15:54.284Z,5.85
2023-01-17T01:18:45.444Z,4.13
2023-01-17T01:21:37.013Z,3.03
2023-01-17T01:24:28.233Z,2.80
2023-01-17T01:27:19.772Z,7.40
2023-01-17T01:30:12.007Z,5.18
2023-01-17T01:33:03.387Z,3.92
2023-01-17T01:35:38.047Z,5.43
2023-01-17T01:38:11.888Z,4.05
2023-01-17T01:40:47.753Z,3.58
2023-01-17T01:43:39.965Z,3.38
2023-01-17T01:46:19.280Z,5.38
2023-01-17T01:48:56.321Z,3.30
2023-01-17T01:51:36.118Z,4.00
2023-01-17T01:54:15.174Z,4.18
2023-01-17T01:59:24.841Z,4.15
2023-01-17T02:01:59.701Z,3.92
2023-01-17T02:04:33.449Z,3.72
2023-01-17T02:07:12.080Z,3.00
2023-01-17T02:12:21.786Z,3.40
2023-01-17T02:14:55.590Z,3.38
2023-01-17T02:17:46.926Z,5.93
2023-01-17T02:20:57.107Z,5.95
2023-01-17T02:23:54.451Z,5.18
2023-01-17T02:26:58.918Z,5.38
2023-01-17T02:30:04.736Z,7.40
2023-01-17T02:32:54.099Z,6.70
2023-01-17T02:35:35.148Z,5.60
2023-01-17T02:38:18.536Z,7.68
2023-01-17T02:40:56.598Z,5.05
2023-01-17T02:43:30.694Z,8.45
2023-01-17T02:46:04.745Z,7.22
2023-01-17T02:48:40.465Z,6.32
2023-01-17T02:51:41.259Z,6.93
2023-01-17T02:54:33.198Z,8.15
2023-01-17T02:57:24.594Z,6.43
2023-01-17T03:00:04.487Z,5.15
2023-01-17T03:02:48.352Z,6.68
2023-01-17T03:05:30.012Z,8.32
2023-01-17T03:08:04.702Z,7.57
2023-01-17T03:10:39.610Z,6.47
2023-01-17T03:13:13.227Z,8.30
2023-01-17T03:15:47.436Z,8.48
2023-01-17T03:18:21.219Z,11.00
2023-01-17T03:20:56.243Z,10.10
2023-01-17T03:23:30.012Z,9.50
2023-01-17T03:26:03.778Z,9.55
2023-01-17T03:28:37.271Z,11.52
2023-01-17T03:31:11.207Z,12.38
2023-01-17T03:33:44.638Z,11.40
2023-01-17T03:36:20.286Z,12.25
2023-01-17T03:38:53.788Z,8.68
2023-01-17T03:41:27.551Z,11.02
2023-01-17T03:44:01.031Z,14.05
2023-01-17T03:46:34.845Z,11.23
2023-01-17T03:49:08.247Z,10.98
2023-01-17T03:51:43.374Z,14.45
2023-01-17T03:54:16.863Z,14.43
2023-01-17T03:56:50.767Z,14.52
2023-01-17T03:59:24.265Z,12.48
2023-01-17T04:01:58.108Z,12.50
2023-01-17T04:04:31.692Z,12.02
2023-01-17T04:07:06.829Z,11.27
2023-01-17T04:09:40.415Z,12.00
2023-01-17T04:12:14.093Z,13.07
2023-01-17T04:14:48.102Z,14.18
2023-01-17T04:17:21.903Z,15.65
2023-01-17T04:19:55.442Z,13.85
2023-01-17T04:22:31.556Z,10.07
2023-01-17T04:25:05.585Z,7.93
2023-01-17T04:27:39.391Z,7.57
2023-01-17T04:30:13.657Z,5.72
2023-01-17T04:32:47.479Z,4.93
2023-01-17T04:35:21.111Z,4.63
2023-01-17T04:37:56.154Z,4.47
2023-01-17T04:40:29.669Z,6.13
2023-01-17T04:43:03.479Z,5.45
2023-01-17T04:45:38.687Z,6.80
2023-01-17T04:48:12.901Z,6.60
2023-01-17T04:50:46.316Z,7.53
2023-01-17T04:53:21.438Z,8.13
2023-01-17T04:55:55.051Z,7.10
2023-01-17T04:58:28.872Z,6.82
2023-01-17T05:01:04.111Z,5.82
2023-01-17T05:03:38.578Z,7.97
2023-01-17T05:06:12.509Z,8.57
2023-01-17T05:08:47.525Z,6.28
2023-01-17T05:11:21.058Z,6.82
2023-01-17T05:13:54.787Z,7.15
2023-01-17T05:16:28.511Z,10.30
2023-01-17T05:19:02.826Z,7.53
2023-01-17T05:21:36.456Z,11.18
2023-01-17T05:24:11.563Z,7.93
2023-01-17T05:26:45.106Z,8.65
2023-01-17T05:29:18.790Z,10.63
2023-01-17T05:31:52.268Z,8.02
2023-01-17T05:34:26.368Z,8.82
2023-01-17T05:37:00.314Z,9.50
2023-01-17T05:39:35.587Z,8.75
2023-01-17T05:42:09.385Z,10.73
2023-01-17T05:44:43.195Z,8.32
2023-01-17T05:47:16.787Z,11.38
2023-01-17T05:49:50.603Z,7.93
2023-01-17T05:52:24.441Z,11.70
2023-01-17T05:54:59.732Z,7.05
2023-01-17T05:57:33.459Z,7.18
2023-01-17T06:00:08.765Z,5.05
2023-01-17T06:02:43.091Z,3.97
2023-01-17T06:05:17.703Z,5.20
2023-01-17T06:07:51.593Z,2.25
2023-01-17T06:10:28.365Z,2.83
2023-01-17T06:13:05.100Z,1.00
2023-01-17T06:15:39.851Z,1.55
2023-01-17T06:18:15.503Z,0.68
2023-01-17T06:20:54.235Z,1.33
2023-01-17T06:23:28.249Z,0.95
2023-01-17T06:26:05.275Z,4.40
2023-01-17T06:28:38.850Z,1.98
2023-01-17T06:31:12.648Z,1.25
2023-01-17T06:33:46.169Z,2.63
2023-01-17T06:36:20.204Z,3.20
2023-01-17T06:38:53.937Z,1.85
2023-01-17T06:41:29.291Z,8.07
2023-01-17T06:44:03.061Z,2.95
2023-01-17T06:46:36.944Z,2.38
2023-01-17T06:49:10.421Z,6.47
2023-01-17T06:51:44.361Z,3.75
2023-01-17T06:54:18.856Z,5.63
2023-01-17T06:56:54.068Z,5.07
2023-01-17T06:59:27.690Z,7.63
2023-01-17T07:02:01.554Z,2.83
2023-01-17T07:04:35.747Z,11.30
2023-01-17T07:07:09.690Z,2.50
2023-01-17T07:09:45.327Z,5.82
2023-01-17T07:12:20.561Z,8.85
2023-01-17T07:14:54.113Z,5.63
2023-01-17T07:17:28.089Z,5.07
2023-01-17T07:20:01.661Z,3.65
2023-01-17T07:22:37.631Z,7.57
2023-01-17T07:25:11.658Z,9.45
2023-01-17T07:27:47.292Z,5.07
2023-01-17T07:30:21.735Z,6.97
2023-01-17T07:32:56.233Z,6.53
2023-01-17T07:35:29.791Z,9.77
2023-01-17T07:38:04.018Z,9.30
2023-01-17T07:40:42.014Z,3.70
2023-01-17T07:43:17.692Z,7.20
2023-01-17T07:45:52.220Z,6.75
2023-01-17T07:48:26.318Z,7.82
2023-01-17T07:51:00.553Z,12.32
2023-01-17T07:53:34.427Z,10.23
2023-01-17T07:56:09.244Z,7.05
2023-01-17T07:58:44.342Z,9.05
2023-01-17T08:01:18.162Z,10.98
2023-01-17T08:03:54.792Z,12.43
2023-01-17T08:06:30.056Z,6.72
2023-01-17T08:09:04.106Z,10.45
2023-01-17T08:11:37.802Z,11.48
2023-01-17T08:14:13.064Z,10.13
2023-01-17T08:16:46.762Z,10.38
2023-01-17T08:19:22.319Z,15.45
2023-01-17T08:21:55.883Z,9.65
2023-01-17T08:24:29.710Z,5.80
2023-01-17T08:27:03.305Z,5.75
2023-01-17T08:29:41.300Z,7.28
2023-01-17T08:32:15.042Z,5.13
2023-01-17T08:34:48.830Z,9.57
2023-01-17T08:37:22.429Z,11.18
2023-01-17T08:39:56.129Z,5.60
2023-01-17T08:42:30.560Z,8.10
2023-01-17T08:45:08.278Z,12.95
2023-01-17T08:47:42.086Z,10.27
2023-01-17T08:50:20.552Z,8.70
2023-01-17T08:53:00.944Z,8.43
2023-01-17T08:55:39.480Z,6.95
2023-01-17T08:58:14.092Z,9.80
2023-01-17T09:00:49.655Z,7.05
2023-01-17T09:03:23.408Z,7.28
2023-01-17T09:06:02.312Z,6.03
2023-01-17T09:08:36.615Z,8.57
2023-01-17T09:11:12.222Z,10.63
2023-01-17T09:13:45.821Z,8.93
2023-01-17T09:16:21.094Z,6.38
2023-01-17T09:18:55.318Z,5.28
2023-01-17T09:21:29.073Z,4.68
2023-01-17T09:24:02.683Z,14.43
2023-01-17T09:26:36.719Z,11.30
2023-01-17T09:29:10.259Z,10.80
2023-01-17T09:31:48.239Z,9.00
2023-01-17T09:34:24.217Z,14.30
2023-01-17T09:36:57.922Z,4.45
2023-01-17T09:39:31.374Z,11.80
2023-01-17T09:42:19.315Z,10.27
2023-01-17T09:44:53.573Z,4.75
2023-01-17T09:47:35.336Z,10.13
2023-01-17T09:50:21.595Z,6.00
2023-01-17T09:53:01.723Z,11.27
2023-01-17T09:55:41.343Z,3.80
2023-01-17T09:58:21.784Z,9.38
2023-01-17T10:01:05.035Z,11.68
2023-01-17T10:03:47.249Z,12.63
2023-01-17T10:06:44.340Z,6.75
2023-01-17T10:09:37.596Z,8.10
2023-01-17T10:12:22.355Z,6.15
2023-01-17T10:15:18.356Z,9.35
2023-01-17T10:17:58.748Z,4.30
2023-01-17T10:20:44.991Z,7.40
2023-01-17T10:23:30.654Z,9.82
2023-01-17T10:26:08.993Z,9.27
2023-01-17T10:28:48.693Z,15.30
2023-01-17T10:31:24.777Z,10.90
2023-01-17T10:34:03.643Z,10.07
2023-01-17T10:36:42.270Z,9.85
2023-01-17T10:39:20.356Z,8.32
2023-01-17T10:41:57.918Z,7.53
2023-01-17T10:44:36.617Z,9.43
2023-01-17T10:47:20.247Z,13.68
2023-01-17T10:49:57.884Z,11.57
2023-01-17T10:52:43.146Z,9.13
2023-01-17T10:55:32.597Z,9.68
2023-01-17T10:58:09.594Z,13.18
2023-01-17T11:00:49.193Z,9.55
2023-01-17T11:03:23.890Z,7.28
2023-01-17T11:06:19.536Z,5.82
2023-01-17T11:08:57.124Z,5.28
2023-01-17T11:11:32.799Z,7.25
2023-01-17T11:14:16.633Z,9.88
2023-01-17T11:17:01.036Z,11.32
2023-01-17T11:19:37.251Z,4.95
2023-01-17T11:22:16.866Z,6.63
2023-01-17T11:24:54.571Z,5.68
2023-01-17T11:27:30.654Z,6.07
2023-01-17T11:30:15.786Z,6.85
2023-01-17T11:32:53.787Z,5.85
2023-01-17T11:35:30.828Z,7.53
2023-01-17T11:38:07.615Z,9.95
2023-01-17T11:40:43.767Z,4.13
2023-01-17T11:43:21.624Z,14.48
2023-01-17T11:46:06.354Z,7.70
2023-01-17T11:48:40.212Z,7.40
2023-01-17T11:51:21.840Z,8.07
2023-01-17T11:54:04.683Z,7.03
2023-01-17T11:56:43.118Z,6.50
2023-01-17T11:59:31.313Z,5.65
2023-01-17T12:02:59.482Z,7.57
2023-01-17T12:05:51.410Z,8.40
2023-01-17T12:08:35.554Z,5.00
2023-01-17T12:11:17.576Z,15.10
2023-01-17T12:14:02.869Z,1.38
2023-01-17T12:16:51.416Z,3.45
2023-01-17T12:19:38.943Z,5.38
2023-01-17T12:22:28.678Z,6.43
2023-01-17T12:25:14.907Z,4.03
2023-01-17T12:28:01.614Z,6.00
2023-01-17T12:30:59.329Z,4.60
2023-01-17T12:33:45.790Z,9.37
2023-01-17T12:36:36.950Z,5.38
2023-01-17T12:39:14.269Z,5.95
2023-01-17T12:42:02.720Z,6.05
2023-01-17T12:44:48.929Z,7.28
2023-01-17T12:47:24.472Z,6.63
2023-01-17T12:50:07.195Z,4.72
2023-01-17T12:52:52.114Z,4.57
2023-01-17T12:55:36.869Z,5.93
2023-01-17T12:58:17.313Z,2.75
2023-01-17T13:00:57.933Z,5.90
2023-01-17T13:03:45.912Z,4.13
2023-01-17T13:06:27.042Z,2.75
2023-01-17T13:09:03.946Z,4.00
2023-01-17T13:11:44.132Z,3.67
2023-01-17T13:14:17.981Z,6.28
2023-01-17T13:16:57.966Z,4.50
2023-01-17T13:19:43.632Z,2.80
2023-01-17T13:22:21.846Z,5.60
2023-01-17T13:25:04.577Z,3.35
2023-01-17T13:28:05.648Z,3.03
2023-01-17T13:31:06.270Z,4.07
2023-01-17T13:33:56.689Z,7.13
2023-01-17T13:36:50.489Z,8.80
2023-01-17T13:39:43.662Z,5.32
2023-01-17T13:42:25.642Z,6.85
2023-01-17T13:44:59.262Z,6.13
2023-01-17T13:47:40.398Z,4.03
2023-01-17T13:50:47.827Z,7.50
2023-01-17T13:53:49.386Z,12.77
2023-01-17T13:56:35.449Z,5.88
2023-01-17T13:59:34.185Z,10.73
2023-01-17T14:02:36.571Z,5.05
2023-01-17T14:05:15.166Z,4.32
2023-01-17T14:07:54.105Z,6.32
2023-01-17T14:10:38.091Z,7.55
2023-01-17T14:13:34.544Z,6.95
2023-01-17T14:16:25.205Z,7.43
2023-01-17T14:18:58.983Z,11.88
2023-01-17T14:21:33.284Z,4.25
2023-01-17T14:24:16.035Z,3.72
2023-01-17T14:26:55.593Z,2.08
2023-01-17T14:29:52.136Z,7.18
2023-01-17T14:32:30.472Z,7.45
2023-01-17T14:35:05.668Z,6.80
2023-01-17T14:37:45.487Z,5.60
2023-01-17T14:40:21.750Z,11.00
2023-01-17T14:43:02.040Z,9.48
2023-01-17T14:45:37.946Z,15.23
2023-01-17T14:48:17.213Z,4.00
2023-01-17T14:53:27.958Z,8.32
2023-01-17T14:56:03.028Z,6.25
2023-01-17T14:58:37.565Z,7.30
2023-01-17T15:01:15.034Z,5.63
2023-01-17T15:03:51.760Z,2.45
2023-01-17T15:06:31.731Z,7.38
2023-01-17T15:09:11.282Z,3.40
2023-01-17T15:11:46.494Z,7.07
2023-01-17T15:14:24.139Z,9.25
2023-01-17T15:17:10.235Z,3.25
2023-01-17T15:19:45.399Z,6.65
2023-01-17T15:22:20.544Z,10.82
2023-01-17T15:24:54.855Z,4.70
2023-01-17T15:27:29.048Z,6.38
2023-01-17T15:30:04.226Z,12.10
2023-01-17T15:32:39.564Z,5.07
2023-01-17T15:35:18.327Z,9.35
2023-01-17T15:37:55.188Z,6.75
2023-01-17T15:40:31.203Z,2.60
2023-01-17T15:43:06.577Z,6.47
2023-01-17T15:45:40.356Z,5.15
2023-01-17T15:48:39.397Z,7.72
2023-01-17T15:51:14.287Z,3.10
2023-01-17T15:53:47.813Z,7.97
2023-01-17T15:56:29.573Z,11.63
2023-01-17T15:59:23.815Z,5.57
2023-01-17T16:01:59.116Z,5.10
2023-01-17T16:04:37.143Z,7.30
2023-01-17T16:07:19.512Z,10.82
2023-01-17T16:09:53.080Z,6.22
2023-01-17T16:12:27.157Z,5.03
2023-01-17T16:15:11.849Z,13.50
2023-01-17T16:17:49.197Z,8.07
2023-01-17T16:20:27.103Z,10.32
2023-01-17T16:23:00.848Z,10.20
2023-01-17T16:25:34.387Z,13.02
2023-01-17T16:28:08.278Z,9.10
2023-01-17T16:30:42.016Z,4.90
2023-01-17T16:33:16.669Z,9.90
2023-01-17T16:35:55.048Z,8.85
2023-01-17T16:38:28.983Z,6.03
2023-01-17T16:41:04.894Z,9.50
2023-01-17T16:43:38.627Z,12.07
2023-01-17T16:46:13.057Z,14.38
2023-01-17T16:48:46.942Z,5.95
2023-01-17T16:51:22.492Z,9.55
2023-01-17T16:53:56.465Z,6.40
2023-01-17T16:56:30.167Z,9.85
2023-01-17T16:59:04.072Z,9.10
2023-01-17T17:01:37.931Z,10.00
2023-01-17T17:04:12.976Z,11.63
2023-01-17T17:06:47.896Z,10.05
2023-01-17T17:09:22.366Z,9.98
2023-01-17T17:11:56.780Z,10.88
2023-01-17T17:14:30.585Z,10.23
2023-01-17T17:17:04.279Z,8.20
2023-01-17T17:19:38.109Z,7.65
2023-01-17T17:22:13.460Z,13.52
2023-01-17T17:24:47.189Z,11.20
2023-01-17T17:27:26.542Z,9.23
2023-01-17T17:30:00.327Z,12.60
2023-01-17T17:32:34.120Z,9.95
2023-01-17T17:35:08.576Z,12.77
2023-01-17T17:37:43.766Z,9.50
2023-01-17T17:40:17.846Z,10.63
2023-01-17T17:42:51.404Z,9.23
2023-01-17T17:45:25.150Z,12.50
2023-01-17T17:47:58.713Z,14.73
2023-01-17T17:50:32.548Z,9.45
2023-01-17T17:53:08.448Z,23.92
2023-01-17T17:55:42.162Z,12.18
2023-01-17T17:58:15.817Z,15.50
2023-01-17T18:00:49.638Z,16.90
2023-01-17T18:03:23.203Z,10.60
2023-01-17T18:06:02.203Z,19.02
2023-01-17T18:08:38.176Z,15.27
2023-01-17T18:11:14.983Z,16.70
2023-01-17T18:13:50.437Z,14.60
2023-01-17T18:16:26.579Z,12.43
2023-01-17T18:19:00.753Z,13.27
2023-01-17T18:21:37.955Z,15.63
2023-01-17T18:24:14.316Z,12.50
2023-01-17T18:26:49.848Z,11.65
2023-01-17T18:29:24.793Z,10.63
2023-01-17T18:31:58.621Z,20.83
2023-01-17T18:34:33.734Z,14.82
2023-01-17T18:37:07.736Z,13.55
2023-01-17T18:39:43.760Z,17.63
2023-01-17T18:42:18.396Z,14.88
2023-01-17T18:44:51.973Z,16.08
2023-01-17T18:47:25.752Z,17.80
2023-01-17T18:49:59.648Z,15.55
2023-01-17T18:52:35.062Z,15.50
2023-01-17T18:55:10.201Z,13.00
2023-01-17T18:57:44.465Z,13.90
2023-01-17T19:00:19.569Z,12.27
2023-01-17T19:02:53.690Z,15.70
2023-01-17T19:05:27.602Z,14.50
2023-01-17T19:08:01.323Z,19.70
2023-01-17T19:10:36.218Z,15.05
2023-01-17T19:13:10.397Z,12.57
2023-01-17T19:15:43.937Z,18.20
2023-01-17T19:18:17.846Z,18.75
2023-01-17T19:20:51.449Z,18.25
2023-01-17T19:23:25.144Z,12.98
2023-01-17T19:26:00.266Z,14.52
2023-01-17T19:28:38.060Z,19.83
2023-01-17T19:31:14.001Z,14.98
2023-01-17T19:33:49.480Z,22.38
2023-01-17T19:36:25.126Z,15.10
2023-01-17T19:39:05.024Z,13.50
2023-01-17T19:41:43.997Z,14.20
2023-01-17T19:44:17.759Z,18.85
2023-01-17T19:46:51.327Z,14.35
2023-01-17T19:49:25.256Z,17.77
2023-01-17T19:51:58.808Z,16.50
2023-01-17T19:54:32.671Z,12.75
2023-01-17T19:57:07.824Z,20.95
2023-01-17T19:59:41.696Z,14.50
2023-01-17T20:02:15.390Z,20.08
2023-01-17T20:04:49.474Z,10.07
2023-01-17T20:07:22.966Z,20.08
2023-01-17T20:09:57.636Z,15.50
2023-01-17T20:12:32.915Z,17.10
2023-01-17T20:15:07.628Z,15.05
2023-01-17T20:17:41.349Z,17.75
2023-01-17T20:20:15.777Z,20.10
2023-01-17T20:22:49.460Z,15.52
2023-01-17T20:25:23.234Z,11.57
2023-01-17T20:27:58.503Z,19.00
2023-01-17T20:30:32.973Z,21.35
2023-01-17T20:33:09.015Z,17.35
2023-01-17T20:35:42.782Z,17.42
2023-01-17T20:38:16.435Z,23.20
2023-01-17T20:40:55.144Z,21.05
2023-01-17T20:43:31.497Z,16.08
2023-01-17T20:46:05.880Z,14.32
2023-01-17T20:48:45.394Z,19.40
2023-01-17T20:51:20.729Z,19.67
2023-01-17T20:53:56.415Z,14.73
2023-01-17T20:56:34.413Z,13.45
2023-01-17T20:59:12.834Z,19.65
2023-01-17T21:01:47.047Z,17.33
2023-01-17T21:04:25.591Z,22.52
2023-01-17T21:06:59.476Z,14.93
2023-01-17T21:09:33.347Z,16.27
2023-01-17T21:12:07.227Z,16.08
2023-01-17T21:14:42.959Z,20.52
2023-01-17T21:17:17.075Z,12.73
2023-01-17T21:19:50.596Z,18.25
2023-01-17T21:22:24.319Z,16.00
2023-01-17T21:24:58.794Z,17.25
2023-01-17T21:27:32.619Z,17.58
2023-01-17T21:30:09.813Z,15.38
2023-01-17T21:32:43.685Z,15.82
2023-01-17T21:35:17.428Z,14.40
2023-01-17T21:37:51.400Z,13.98
2023-01-17T21:40:24.901Z,9.65
2023-01-17T21:42:58.657Z,18.80
2023-01-17T21:45:37.716Z,19.33
2023-01-17T21:48:13.146Z,16.10
2023-01-17T21:50:47.246Z,15.57
2023-01-17T21:53:21.021Z,16.67
2023-01-17T21:56:17.792Z,16.65
2023-01-17T21:58:54.557Z,16.38
2023-01-17T22:01:33.278Z,12.27
2023-01-17T22:04:07.120Z,20.17
2023-01-17T22:06:41.129Z,14.60
2023-01-17T22:09:15.072Z,16.45
2023-01-17T22:11:48.686Z,16.27
2023-01-17T22:14:22.542Z,17.77
2023-01-17T22:16:57.758Z,18.30
2023-01-17T22:19:31.445Z,13.93
2023-01-17T22:22:04.999Z,13.90
2023-01-17T22:24:40.191Z,16.45
2023-01-17T22:27:13.897Z,16.85
2023-01-17T22:29:47.735Z,15.80
2023-01-17T22:32:22.661Z,14.00
2023-01-17T22:34:56.390Z,15.45
2023-01-17T22:37:29.978Z,16.65
2023-01-17T22:40:04.988Z,21.73
2023-01-17T22:42:38.590Z,18.45
2023-01-17T22:45:12.790Z,23.88
2023-01-17T22:47:47.787Z,22.77
2023-01-17T22:50:23.392Z,18.02
2023-01-17T22:52:57.442Z,16.80
2023-01-17T22:55:31.444Z,23.40
2023-01-17T22:58:04.944Z,24.05
2023-01-17T23:00:38.727Z,23.52
2023-01-17T23:03:13.831Z,23.90
2023-01-17T23:05:47.637Z,19.25
2023-01-17T23:08:21.170Z,22.10
2023-01-17T23:11:12.422Z,27.42
2023-01-17T23:13:45.932Z,22.10
2023-01-17T23:16:37.146Z,27.67
2023-01-17T23:19:24.290Z,24.17
2023-01-17T23:22:19.003Z,31.50
2023-01-17T23:24:53.984Z,25.92
2023-01-17T23:27:47.006Z,26.35
2023-01-17T23:30:23.476Z,25.55
2023-01-17T23:32:59.314Z,22.17
2023-01-17T23:35:41.473Z,20.33
2023-01-17T23:38:29.962Z,28.90
2023-01-17T23:41:23.422Z,30.45
2023-01-17T23:43:59.325Z,24.77
2023-01-17T23:46:33.575Z,22.90
2023-01-17T23:49:07.339Z,24.55
2023-01-17T23:51:42.519Z,31.73
2023-01-17T23:54:16.288Z,23.27
2023-01-17T23:56:50.100Z,30.77
2023-01-17T23:59:23.984Z,30.45
